createdAt,value
2016-02-18T00:00:08.370Z,1014.05
2016-02-18T00:01:17.969Z,1014.03
2016-02-18T00:02:05.235Z,1014.08
2016-02-18T00:03:05.238Z,1014.08
2016-02-18T00:04:11.333Z,1014.06
2016-02-18T00:05:33.984Z,1014.06
2016-02-18T00:06:43.534Z,1014.1
2016-02-18T00:07:27.240Z,1014.08
2016-02-18T00:08:36.586Z,1014.05
2016-02-18T00:09:45.932Z,1014.02
2016-02-18T00:10:45.920Z,1014.03
2016-02-18T00:11:55.485Z,1014.09
2016-02-18T00:13:04.862Z,1014.03
2016-02-18T00:14:14.462Z,1014.06
2016-02-18T00:15:14.464Z,1014.03
2016-02-18T00:16:17.576Z,1014.02
2016-02-18T00:17:20.642Z,1014.02
2016-02-18T00:18:20.659Z,1014.03
2016-02-18T00:19:35.865Z,1014.02
2016-02-18T00:20:35.884Z,1014
2016-02-18T00:21:48.621Z,1014.06
2016-02-18T00:22:48.639Z,1014.02
2016-02-18T00:23:55.141Z,1014.06
2016-02-18T00:24:35.941Z,1014.08
2016-02-18T00:26:01.678Z,1014.11
2016-02-18T00:26:45.555Z,1014.15
2016-02-18T00:27:45.558Z,1014.16
2016-02-18T00:28:45.577Z,1014.14
2016-02-18T00:29:47.001Z,1014.1
2016-02-18T00:30:45.599Z,1014.14
2016-02-18T00:31:56.569Z,1014.12
2016-02-18T00:32:56.588Z,1014.09
2016-02-18T00:33:56.621Z,1014.09
2016-02-18T00:34:56.624Z,1014.07
2016-02-18T00:36:15.832Z,1014.08
2016-02-18T00:37:09.400Z,1014.07
2016-02-18T00:38:22.328Z,1014.06
2016-02-18T00:39:25.392Z,1014.07
2016-02-18T00:40:34.911Z,1014.05
2016-02-18T00:41:34.929Z,1014.05
2016-02-18T00:42:50.119Z,1014.05
2016-02-18T00:43:50.139Z,1014.04
2016-02-18T00:44:50.156Z,1014.1
2016-02-18T00:45:50.362Z,1014.13
2016-02-18T00:46:50.177Z,1014.09
2016-02-18T00:47:50.195Z,1014.09
2016-02-18T00:49:02.948Z,1014.11
2016-02-18T00:49:50.216Z,1014.1
2016-02-18T00:51:09.438Z,1014.11
2016-02-18T00:52:15.912Z,1014.1
2016-02-18T00:53:18.994Z,1014.14
2016-02-18T00:54:28.605Z,1014.17
2016-02-18T00:55:28.608Z,1014.08
2016-02-18T00:56:28.626Z,1014.11
2016-02-18T00:57:34.910Z,1014.14
2016-02-18T00:58:41.396Z,1014.13
2016-02-18T00:59:41.493Z,1014.15
2016-02-18T01:00:41.418Z,1014.14
2016-02-18T01:01:28.687Z,1014.15
2016-02-18T01:02:41.439Z,1014.16
2016-02-18T01:03:28.724Z,1014.17
2016-02-18T01:04:28.726Z,1014.16
2016-02-18T01:05:28.744Z,1014.16
2016-02-18T01:06:38.309Z,1014.16
2016-02-18T01:07:38.332Z,1014.16
2016-02-18T01:09:04.007Z,1014.17
2016-02-18T01:10:13.509Z,1014.16
2016-02-18T01:12:28.736Z,1014.21
2016-02-18T01:13:28.755Z,1014.18
2016-02-18T01:14:30.180Z,1014.2
2016-02-18T01:15:39.713Z,1014.2
2016-02-18T01:16:39.747Z,1014.29
2016-02-18T01:17:41.156Z,1014.25
2016-02-18T01:18:39.769Z,1014.29
2016-02-18T01:19:42.802Z,1014.35
2016-02-18T01:20:41.211Z,1014.34
2016-02-18T01:21:39.808Z,1014.38
2016-02-18T01:22:59.029Z,1014.36
2016-02-18T01:23:52.563Z,1014.39
2016-02-18T01:25:05.519Z,1014.35
2016-02-18T01:25:39.849Z,1014.33
2016-02-18T01:27:49.448Z,1014.33
2016-02-18T01:28:49.467Z,1014.31
2016-02-18T01:29:59.016Z,1014.29
2016-02-18T01:30:59.019Z,1014.35
2016-02-18T01:31:59.037Z,1014.33
2016-02-18T01:33:11.790Z,1014.32
2016-02-18T01:34:24.734Z,1014.29
2016-02-18T01:35:21.423Z,1014.3
2016-02-18T01:36:34.175Z,1014.35
2016-02-18T01:37:21.444Z,1014.33
2016-02-18T01:38:21.462Z,1014.36
2016-02-18T01:40:31.046Z,1014.34
2016-02-18T01:41:31.048Z,1014.34
2016-02-18T01:42:40.661Z,1014.34
2016-02-18T01:43:40.663Z,1014.36
2016-02-18T01:44:46.776Z,1014.34
2016-02-18T01:45:43.747Z,1014.34
2016-02-18T01:46:43.749Z,1014.36
2016-02-18T01:48:43.786Z,1014.28
2016-02-18T01:49:43.789Z,1014.28
2016-02-18T01:50:56.542Z,1014.29
2016-02-18T01:51:43.825Z,1014.27
2016-02-18T01:52:43.828Z,1014.25
2016-02-18T01:53:45.346Z,1014.25
2016-02-18T01:54:56.647Z,1014.26
2016-02-18T01:55:46.899Z,1014.24
2016-02-18T01:57:03.088Z,1014.24
2016-02-18T01:57:56.638Z,1014.26
2016-02-18T01:59:09.579Z,1014.24
2016-02-18T02:00:12.534Z,1014.21
2016-02-18T02:01:12.553Z,1014.2
2016-02-18T02:02:12.554Z,1014.22
2016-02-18T02:03:12.559Z,1014.21
2016-02-18T02:04:18.804Z,1014.22
2016-02-18T02:05:31.748Z,1014.19
2016-02-18T02:06:12.545Z,1014.17
2016-02-18T02:07:12.551Z,1014.16
2016-02-18T02:08:41.314Z,1014.18
2016-02-18T02:10:56.513Z,1014.15
2016-02-18T02:11:56.511Z,1014.12
2016-02-18T02:12:56.512Z,1014.1
2016-02-18T02:14:11.670Z,1014.13
2016-02-18T02:15:11.687Z,1014.16
2016-02-18T02:16:17.969Z,1014.17
2016-02-18T02:17:11.753Z,1014.16
2016-02-18T02:18:24.460Z,1014.16
2016-02-18T02:19:18.007Z,1014.2
2016-02-18T02:20:30.947Z,1014.17
2016-02-18T02:21:24.480Z,1014.14
2016-02-18T02:22:11.777Z,1014.14
2016-02-18T02:23:21.343Z,1014.1
2016-02-18T02:24:47.035Z,1014.11
2016-02-18T02:26:21.382Z,1014.1
2016-02-18T02:27:21.385Z,1014.09
2016-02-18T02:28:36.577Z,1014.11
2016-02-18T02:29:36.596Z,1014.09
2016-02-18T02:30:36.598Z,1014.05
2016-02-18T02:31:49.367Z,1014.04
2016-02-18T02:32:36.635Z,1014.06
2016-02-18T02:33:55.856Z,1014.03
2016-02-18T02:34:36.657Z,1014.07
2016-02-18T02:35:36.659Z,1014.07
2016-02-18T02:36:46.209Z,1014.05
2016-02-18T02:37:46.226Z,1014.07
2016-02-18T02:38:46.229Z,1014.09
2016-02-18T02:39:58.982Z,1014.05
2016-02-18T02:40:46.251Z,1014.06
2016-02-18T02:41:46.269Z,1014.04
2016-02-18T02:42:49.412Z,1014.07
2016-02-18T02:43:49.414Z,1014.06
2016-02-18T02:44:49.652Z,1014.08
2016-02-18T02:45:49.436Z,1014.05
2016-02-18T02:46:55.704Z,1014.03
2016-02-18T02:47:49.457Z,1014.05
2016-02-18T02:48:49.491Z,1014.1
2016-02-18T02:49:49.494Z,1014.08
2016-02-18T02:50:49.496Z,1014.11
2016-02-18T02:52:02.249Z,1014.07
2016-02-18T02:53:08.720Z,1014.13
2016-02-18T02:53:49.535Z,1014.12
2016-02-18T02:55:49.760Z,1014.09
2016-02-18T02:56:49.575Z,1014.11
2016-02-18T02:57:55.843Z,1014.08
2016-02-18T02:58:49.596Z,1014.09
2016-02-18T03:00:08.802Z,1014.05
2016-02-18T03:00:52.696Z,1014.1
2016-02-18T03:01:52.698Z,1014.08
2016-02-18T03:02:55.794Z,1014.08
2016-02-18T03:04:21.469Z,1014.07
2016-02-18T03:04:55.815Z,1014.04
2016-02-18T03:05:55.834Z,1014.07
2016-02-18T03:06:57.243Z,1014.03
2016-02-18T03:07:55.840Z,1014
2016-02-18T03:08:55.857Z,1014.07
2016-02-18T03:10:02.142Z,1014.02
2016-02-18T03:10:57.285Z,1013.99
2016-02-18T03:12:08.631Z,1013.98
2016-02-18T03:12:55.914Z,1014
2016-02-18T03:14:15.120Z,1013.98
2016-02-18T03:16:21.611Z,1013.97
2016-02-18T03:16:55.956Z,1013.98
2016-02-18T03:17:56.209Z,1013.99
2016-02-18T03:19:08.696Z,1013.95
2016-02-18T03:21:11.171Z,1014
2016-02-18T03:22:36.848Z,1014.03
2016-02-18T03:23:52.647Z,1014.01
2016-02-18T03:24:52.666Z,1014
2016-02-18T03:25:52.685Z,1014.01
2016-02-18T03:26:52.687Z,1014.01
2016-02-18T03:27:52.690Z,1014.01
2016-02-18T03:28:52.708Z,1014.04
2016-02-18T03:29:52.711Z,1014.02
2016-02-18T03:30:52.730Z,1014.04
2016-02-18T03:31:52.732Z,1014.02
2016-02-18T03:32:52.750Z,1014.03
2016-02-18T03:33:52.769Z,1014
2016-02-18T03:34:52.771Z,1014.01
2016-02-18T03:35:52.790Z,1014.02
2016-02-18T03:37:05.527Z,1014.04
2016-02-18T03:37:52.810Z,1014.06
2016-02-18T03:38:52.813Z,1014.04
2016-02-18T03:39:52.832Z,1014.08
2016-02-18T03:40:52.851Z,1014.1
2016-02-18T03:41:52.853Z,1014.09
2016-02-18T03:42:52.871Z,1014.11
2016-02-18T03:44:08.045Z,1014.12
2016-02-18T03:45:08.064Z,1014.12
2016-02-18T03:47:23.273Z,1014.11
2016-02-18T03:48:23.290Z,1014.14
2016-02-18T03:49:23.293Z,1014.15
2016-02-18T03:50:23.920Z,1014.17
2016-02-18T03:51:36.048Z,1014.15
2016-02-18T03:52:23.347Z,1014.19
2016-02-18T03:53:42.541Z,1014.21
2016-02-18T03:54:36.088Z,1014.19
2016-02-18T03:55:23.372Z,1014.21
2016-02-18T03:56:23.375Z,1014.25
2016-02-18T03:57:23.393Z,1014.31
2016-02-18T03:58:23.396Z,1014.27
2016-02-18T03:59:23.413Z,1014.26
2016-02-18T04:00:36.151Z,1014.25
2016-02-18T04:01:23.435Z,1014.29
2016-02-18T04:02:49.112Z,1014.26
2016-02-18T04:03:45.803Z,1014.22
2016-02-18T04:04:45.805Z,1014.26
2016-02-18T04:05:52.058Z,1014.18
2016-02-18T04:06:55.171Z,1014.21
2016-02-18T04:07:55.158Z,1014.2
2016-02-18T04:09:04.707Z,1014.18
2016-02-18T04:10:04.710Z,1014.17
2016-02-18T04:11:04.728Z,1014.17
2016-02-18T04:12:17.466Z,1014.21
2016-02-18T04:13:04.749Z,1014.22
2016-02-18T04:14:23.971Z,1014.22
2016-02-18T04:15:04.770Z,1014.21
2016-02-18T04:16:30.460Z,1014.26
2016-02-18T04:18:45.451Z,1014.26
2016-02-18T04:19:39.188Z,1014.29
2016-02-18T04:20:54.377Z,1014.32
2016-02-18T04:21:54.396Z,1014.28
2016-02-18T04:23:07.135Z,1014.29
2016-02-18T04:23:55.026Z,1014.27
2016-02-18T04:24:54.419Z,1014.31
2016-02-18T04:25:57.487Z,1014.32
2016-02-18T04:27:23.178Z,1014.3
2016-02-18T04:28:01.399Z,1014.26
2016-02-18T04:30:43.686Z,1014.28
2016-02-18T04:31:18.016Z,1014.29
2016-02-18T04:33:21.724Z,1014.34
2016-02-18T04:34:21.712Z,1014.31
2016-02-18T04:35:31.340Z,1014.32
2016-02-18T04:36:31.358Z,1014.31
2016-02-18T04:37:43.939Z,1014.27
2016-02-18T04:38:40.925Z,1014.3
2016-02-18T04:39:50.491Z,1014.33
2016-02-18T04:40:50.509Z,1014.33
2016-02-18T04:42:03.250Z,1014.34
2016-02-18T04:42:50.531Z,1014.35
2016-02-18T04:43:50.548Z,1014.4
2016-02-18T04:45:03.305Z,1014.4
2016-02-18T04:46:06.369Z,1014.36
2016-02-18T04:47:06.403Z,1014.39
2016-02-18T04:48:09.499Z,1014.39
2016-02-18T04:49:09.518Z,1014.4
2016-02-18T04:50:09.520Z,1014.41
2016-02-18T04:51:09.539Z,1014.42
2016-02-18T04:52:22.276Z,1014.41
2016-02-18T04:53:09.560Z,1014.44
2016-02-18T04:54:09.579Z,1014.42
2016-02-18T04:55:35.253Z,1014.37
2016-02-18T04:56:09.599Z,1014.38
2016-02-18T04:58:09.620Z,1014.37
2016-02-18T04:59:09.638Z,1014.4
2016-02-18T05:00:24.813Z,1014.39
2016-02-18T05:01:24.817Z,1014.36
2016-02-18T05:02:24.834Z,1014.38
2016-02-18T05:03:42.962Z,1014.38
2016-02-18T05:04:42.974Z,1014.41
2016-02-18T05:05:43.017Z,1014.41
2016-02-18T05:06:58.239Z,1014.34
2016-02-18T05:07:58.241Z,1014.42
2016-02-18T05:08:58.258Z,1014.36
2016-02-18T05:09:58.277Z,1014.4
2016-02-18T05:11:04.549Z,1014.41
2016-02-18T05:12:11.036Z,1014.44
2016-02-18T05:12:58.302Z,1014.42
2016-02-18T05:14:17.525Z,1014.47
2016-02-18T05:15:07.861Z,1014.45
2016-02-18T05:16:20.613Z,1014.47
2016-02-18T05:17:14.554Z,1014.47
2016-02-18T05:18:30.743Z,1014.49
2016-02-18T05:19:12.013Z,1014.44
2016-02-18T05:21:15.081Z,1014.45
2016-02-18T05:22:15.099Z,1014.48
2016-02-18T05:23:21.367Z,1014.47
2016-02-18T05:24:15.120Z,1014.52
2016-02-18T05:25:15.122Z,1014.55
2016-02-18T05:26:27.875Z,1014.56
2016-02-18T05:27:15.143Z,1014.54
2016-02-18T05:28:40.850Z,1014.56
2016-02-18T05:29:19.071Z,1014.55
2016-02-18T05:31:19.092Z,1014.6
2016-02-18T05:32:19.156Z,1014.57
2016-02-18T05:33:38.331Z,1014.57
2016-02-18T05:34:19.130Z,1014.55
2016-02-18T05:35:19.133Z,1014.55
2016-02-18T05:36:19.153Z,1014.55
2016-02-18T05:37:19.170Z,1014.53
2016-02-18T05:38:19.189Z,1014.47
2016-02-18T05:39:19.191Z,1014.54
2016-02-18T05:40:19.210Z,1014.49
2016-02-18T05:41:19.213Z,1014.51
2016-02-18T05:42:34.512Z,1014.49
2016-02-18T05:43:34.515Z,1014.56
2016-02-18T05:44:34.532Z,1014.57
2016-02-18T05:45:34.551Z,1014.58
2016-02-18T05:46:34.555Z,1014.6
2016-02-18T05:47:47.307Z,1014.55
2016-02-18T05:48:34.591Z,1014.55
2016-02-18T05:49:34.593Z,1014.56
2016-02-18T05:50:34.612Z,1014.54
2016-02-18T05:51:34.629Z,1014.53
2016-02-18T05:53:00.304Z,1014.45
2016-02-18T05:53:44.182Z,1014.43
2016-02-18T05:54:53.826Z,1014.43
2016-02-18T05:55:53.844Z,1014.45
2016-02-18T05:56:53.846Z,1014.46
2016-02-18T05:57:53.865Z,1014.43
2016-02-18T05:58:53.883Z,1014.43
2016-02-18T05:59:53.886Z,1014.44
2016-02-18T06:01:06.641Z,1014.4
2016-02-18T06:01:53.906Z,1014.44
2016-02-18T06:02:53.926Z,1014.41
2016-02-18T06:03:53.928Z,1014.46
2016-02-18T06:05:57.015Z,1014.48
2016-02-18T06:08:12.304Z,1014.49
2016-02-18T06:09:12.307Z,1014.5
2016-02-18T06:10:12.309Z,1014.54
2016-02-18T06:11:25.062Z,1014.54
2016-02-18T06:12:12.332Z,1014.52
2016-02-18T06:13:31.553Z,1014.58
2016-02-18T06:14:12.368Z,1014.59
2016-02-18T06:16:13.811Z,1014.61
2016-02-18T06:17:12.391Z,1014.61
2016-02-18T06:18:31.612Z,1014.58
2016-02-18T06:19:13.834Z,1014.58
2016-02-18T06:20:12.431Z,1014.55
2016-02-18T06:21:21.965Z,1014.6
2016-02-18T06:22:21.983Z,1014.59
2016-02-18T06:23:37.064Z,1014.56
2016-02-18T06:24:24.332Z,1014.54
2016-02-18T06:25:43.553Z,1014.6
2016-02-18T06:26:24.352Z,1014.58
2016-02-18T06:28:33.953Z,1014.61
2016-02-18T06:29:33.971Z,1014.62
2016-02-18T06:30:43.552Z,1014.63
2016-02-18T06:31:46.741Z,1014.67
2016-02-18T06:32:56.291Z,1014.66
2016-02-18T06:33:56.324Z,1014.67
2016-02-18T06:34:56.328Z,1014.69
2016-02-18T06:35:56.346Z,1014.7
2016-02-18T06:36:56.349Z,1014.73
2016-02-18T06:38:15.574Z,1014.71
2016-02-18T06:38:56.386Z,1014.71
2016-02-18T06:39:56.388Z,1014.71
2016-02-18T06:41:09.144Z,1014.71
2016-02-18T06:41:56.410Z,1014.7
2016-02-18T06:43:02.693Z,1014.73
2016-02-18T06:43:56.446Z,1014.71
2016-02-18T06:44:56.448Z,1014.73
2016-02-18T06:45:56.451Z,1014.72
2016-02-18T06:47:09.207Z,1014.72
2016-02-18T06:47:57.895Z,1014.74
2016-02-18T06:48:56.490Z,1014.71
2016-02-18T06:51:37.373Z,1014.75
2016-02-18T06:52:37.392Z,1014.79
2016-02-18T06:53:52.597Z,1014.79
2016-02-18T06:54:52.600Z,1014.8
2016-02-18T06:55:52.603Z,1014.78
2016-02-18T06:57:07.811Z,1014.76
2016-02-18T06:58:33.486Z,1014.74
2016-02-18T06:59:43.052Z,1014.76
2016-02-18T07:00:17.382Z,1014.72
2016-02-18T07:02:58.230Z,1014.81
2016-02-18T07:03:32.563Z,1014.84
2016-02-18T07:04:58.252Z,1014.83
2016-02-18T07:05:48.427Z,1014.86
2016-02-18T07:06:48.445Z,1014.88
2016-02-18T07:07:48.463Z,1014.91
2016-02-18T07:09:03.654Z,1014.89
2016-02-18T07:10:03.656Z,1014.92
2016-02-18T07:11:03.674Z,1014.91
2016-02-18T07:12:03.693Z,1014.91
2016-02-18T07:13:03.712Z,1014.95
2016-02-18T07:14:16.451Z,1014.95
2016-02-18T07:15:16.454Z,1014.98
2016-02-18T07:16:22.956Z,1014.94
2016-02-18T07:17:32.615Z,1014.99
2016-02-18T07:18:32.633Z,1015.04
2016-02-18T07:19:38.901Z,1015.03
2016-02-18T07:20:38.920Z,1015.07
2016-02-18T07:21:32.672Z,1015.08
2016-02-18T07:22:51.879Z,1015.18
2016-02-18T07:23:35.772Z,1015.2
2016-02-18T07:24:54.994Z,1015.19
2016-02-18T07:25:45.137Z,1015.2
2016-02-18T07:27:10.814Z,1015.2
2016-02-18T07:28:25.988Z,1015.29
2016-02-18T07:29:26.022Z,1015.29
2016-02-18T07:30:26.010Z,1015.28
2016-02-18T07:31:38.777Z,1015.31
2016-02-18T07:32:26.046Z,1015.31
2016-02-18T07:33:45.252Z,1015.31
2016-02-18T07:34:26.066Z,1015.31
2016-02-18T07:35:51.741Z,1015.32
2016-02-18T07:36:35.635Z,1015.27
2016-02-18T07:37:54.856Z,1015.31
2016-02-18T07:38:41.766Z,1015.36
2016-02-18T07:39:41.799Z,1015.35
2016-02-18T07:40:51.380Z,1015.33
2016-02-18T07:41:51.383Z,1015.31
2016-02-18T07:43:00.932Z,1015.34
2016-02-18T07:44:00.935Z,1015.33
2016-02-18T07:45:00.954Z,1015.32
2016-02-18T07:47:16.226Z,1015.29
2016-02-18T07:48:16.245Z,1015.29
2016-02-18T07:49:22.530Z,1015.29
2016-02-18T07:50:29.001Z,1015.32
2016-02-18T07:51:35.488Z,1015.29
2016-02-18T07:52:16.287Z,1015.31
2016-02-18T07:53:41.978Z,1015.28
2016-02-18T07:54:51.542Z,1015.3
2016-02-18T07:55:45.077Z,1015.32
2016-02-18T07:56:28.985Z,1015.26
2016-02-18T07:57:44.192Z,1015.26
2016-02-18T07:58:44.211Z,1015.26
2016-02-18T07:59:44.228Z,1015.27
2016-02-18T08:00:56.981Z,1015.24
2016-02-18T08:01:44.249Z,1015.28
2016-02-18T08:03:09.957Z,1015.31
2016-02-18T08:04:06.629Z,1015.27
2016-02-18T08:05:06.647Z,1015.26
2016-02-18T08:06:06.667Z,1015.29
2016-02-18T08:07:08.090Z,1015.35
2016-02-18T08:08:06.702Z,1015.35
2016-02-18T08:09:19.443Z,1015.34
2016-02-18T08:10:12.993Z,1015.36
2016-02-18T08:11:25.948Z,1015.38
2016-02-18T08:12:06.745Z,1015.38
2016-02-18T08:14:35.596Z,1015.41
2016-02-18T08:15:35.615Z,1015.42
2016-02-18T08:16:35.634Z,1015.41
2016-02-18T08:17:35.651Z,1015.42
2016-02-18T08:18:41.920Z,1015.39
2016-02-18T08:19:35.657Z,1015.34
2016-02-18T08:20:35.676Z,1015.38
2016-02-18T08:21:48.428Z,1015.35
2016-02-18T08:23:01.384Z,1015.39
2016-02-18T08:23:35.715Z,1015.37
2016-02-18T08:26:22.847Z,1015.44
2016-02-18T08:27:10.116Z,1015.47
2016-02-18T08:28:29.353Z,1015.46
2016-02-18T08:29:10.152Z,1015.45
2016-02-18T08:31:10.799Z,1015.43
2016-02-18T08:32:10.192Z,1015.47
2016-02-18T08:33:22.945Z,1015.49
2016-02-18T08:34:10.228Z,1015.43
2016-02-18T08:35:10.231Z,1015.47
2016-02-18T08:36:19.813Z,1015.49
2016-02-18T08:37:19.830Z,1015.46
2016-02-18T08:38:19.833Z,1015.44
2016-02-18T08:39:19.851Z,1015.44
2016-02-18T08:40:39.073Z,1015.45
2016-02-18T08:41:19.888Z,1015.44
2016-02-18T08:42:19.890Z,1015.47
2016-02-18T08:43:29.659Z,1015.45
2016-02-18T08:44:55.334Z,1015.46
2016-02-18T08:45:39.227Z,1015.48
2016-02-18T08:46:39.246Z,1015.45
2016-02-18T08:47:42.342Z,1015.43
2016-02-18T08:48:51.891Z,1015.46
2016-02-18T08:49:51.925Z,1015.45
2016-02-18T08:51:04.662Z,1015.42
2016-02-18T08:52:04.681Z,1015.43
2016-02-18T08:52:51.948Z,1015.39
2016-02-18T08:53:51.967Z,1015.4
2016-02-18T08:54:55.172Z,1015.39
2016-02-18T08:55:55.175Z,1015.37
2016-02-18T08:56:55.242Z,1015.39
2016-02-18T08:57:55.822Z,1015.38
2016-02-18T08:58:55.278Z,1015.38
2016-02-18T09:00:14.439Z,1015.35
2016-02-18T09:00:58.314Z,1015.38
2016-02-18T09:01:58.317Z,1015.36
2016-02-18T09:02:58.945Z,1015.37
2016-02-18T09:05:39.280Z,1015.37
2016-02-18T09:06:13.612Z,1015.37
2016-02-18T09:08:54.492Z,1015.41
2016-02-18T09:09:28.855Z,1015.39
2016-02-18T09:10:28.872Z,1015.44
2016-02-18T09:11:28.874Z,1015.42
2016-02-18T09:12:28.893Z,1015.46
2016-02-18T09:13:28.896Z,1015.46
2016-02-18T09:14:35.196Z,1015.49
2016-02-18T09:15:48.151Z,1015.46
2016-02-18T09:16:41.685Z,1015.46
2016-02-18T09:17:54.626Z,1015.49
2016-02-18T09:18:28.972Z,1015.53
2016-02-18T09:20:32.134Z,1015.52
2016-02-18T09:21:32.152Z,1015.6
2016-02-18T09:23:00.076Z,1015.57
2016-02-18T09:24:00.095Z,1015.58
2016-02-18T09:26:15.322Z,1015.63
2016-02-18T09:27:15.324Z,1015.63
2016-02-18T09:28:28.078Z,1015.6
2016-02-18T09:29:15.361Z,1015.67
2016-02-18T09:30:34.567Z,1015.66
2016-02-18T09:31:15.398Z,1015.66
2016-02-18T09:32:41.056Z,1015.68
2016-02-18T09:33:24.966Z,1015.67
2016-02-18T09:34:28.094Z,1015.66
2016-02-18T09:35:28.096Z,1015.66
2016-02-18T09:36:28.177Z,1015.67
2016-02-18T09:37:28.726Z,1015.67
2016-02-18T09:38:40.932Z,1015.69
2016-02-18T09:39:28.169Z,1015.66
2016-02-18T09:40:53.844Z,1015.71
2016-02-18T09:41:37.753Z,1015.67
2016-02-18T09:42:37.771Z,1015.68
2016-02-18T09:43:37.774Z,1015.67
2016-02-18T09:44:37.792Z,1015.67
2016-02-18T09:45:37.810Z,1015.64
2016-02-18T09:46:57.032Z,1015.67
2016-02-18T09:47:37.831Z,1015.67
2016-02-18T09:48:37.849Z,1015.68
2016-02-18T09:49:50.461Z,1015.64
2016-02-18T09:50:47.433Z,1015.7
2016-02-18T09:53:28.332Z,1015.71
2016-02-18T09:54:28.351Z,1015.68
2016-02-18T09:55:28.353Z,1015.7
2016-02-18T09:56:28.356Z,1015.69
2016-02-18T09:57:28.373Z,1015.67
2016-02-18T09:58:28.392Z,1015.7
2016-02-18T09:59:54.081Z,1015.68
2016-02-18T10:00:37.944Z,1015.68
2016-02-18T10:01:37.963Z,1015.67
2016-02-18T10:02:39.387Z,1015.68
2016-02-18T10:04:03.656Z,1015.66
2016-02-18T10:05:00.252Z,1015.66
2016-02-18T10:06:00.270Z,1015.64
2016-02-18T10:07:00.304Z,1015.68
2016-02-18T10:08:00.307Z,1015.59
2016-02-18T10:09:00.919Z,1015.58
2016-02-18T10:10:00.937Z,1015.6
2016-02-18T10:11:04.033Z,1015.58
2016-02-18T10:12:04.052Z,1015.65
2016-02-18T10:13:16.808Z,1015.56
2016-02-18T10:14:04.089Z,1015.6
2016-02-18T10:15:16.829Z,1015.6
2016-02-18T10:16:04.110Z,1015.63
2016-02-18T10:17:04.127Z,1015.6
2016-02-18T10:18:13.505Z,1015.59
2016-02-18T10:19:07.258Z,1015.6
2016-02-18T10:20:19.874Z,1015.58
2016-02-18T10:21:17.360Z,1015.59
2016-02-18T10:22:20.487Z,1015.61
2016-02-18T10:23:20.491Z,1015.59
2016-02-18T10:24:23.587Z,1015.61
2016-02-18T10:25:23.590Z,1015.63
2016-02-18T10:26:23.608Z,1015.66
2016-02-18T10:27:38.798Z,1015.68
2016-02-18T10:28:38.817Z,1015.69
2016-02-18T10:29:38.819Z,1015.69
2016-02-18T10:30:51.572Z,1015.68
2016-02-18T10:31:38.856Z,1015.66
2016-02-18T10:33:04.546Z,1015.63
2016-02-18T10:33:58.095Z,1015.64
2016-02-18T10:34:41.458Z,1015.68
2016-02-18T10:35:41.476Z,1015.66
2016-02-18T10:37:56.731Z,1015.72
2016-02-18T10:38:56.750Z,1015.67
2016-02-18T10:39:56.955Z,1015.73
2016-02-18T10:41:03.036Z,1015.72
2016-02-18T10:42:15.995Z,1015.72
2016-02-18T10:43:16.013Z,1015.71
2016-02-18T10:43:56.825Z,1015.75
2016-02-18T10:45:22.503Z,1015.69
2016-02-18T10:46:32.271Z,1015.69
2016-02-18T10:47:06.615Z,1015.7
2016-02-18T10:49:16.185Z,1015.77
2016-02-18T10:50:16.188Z,1015.79
2016-02-18T10:51:16.206Z,1015.77
2016-02-18T10:52:16.240Z,1015.84
2016-02-18T10:53:25.821Z,1015.85
2016-02-18T10:54:25.824Z,1015.85
2016-02-18T10:55:32.124Z,1015.88
2016-02-18T10:56:25.860Z,1015.83
2016-02-18T10:57:45.082Z,1015.85
2016-02-18T10:58:25.897Z,1015.88
2016-02-18T10:59:25.915Z,1015.84
2016-02-18T11:00:35.589Z,1015.85
2016-02-18T11:01:35.593Z,1015.87
2016-02-18T11:02:35.502Z,1015.89
2016-02-18T11:03:35.520Z,1015.86
2016-02-18T11:05:01.211Z,1015.88
2016-02-18T11:05:35.542Z,1015.88
2016-02-18T11:06:35.559Z,1015.9
2016-02-18T11:07:45.109Z,1015.91
2016-02-18T11:08:45.118Z,1015.88
2016-02-18T11:09:57.703Z,1015.89
2016-02-18T11:10:54.677Z,1015.92
2016-02-18T11:12:04.293Z,1015.89
2016-02-18T11:13:04.285Z,1015.87
2016-02-18T11:14:19.514Z,1015.9
2016-02-18T11:15:19.512Z,1015.87
2016-02-18T11:16:19.526Z,1015.86
2016-02-18T11:17:29.087Z,1015.86
2016-02-18T11:18:29.104Z,1015.84
2016-02-18T11:19:32.213Z,1015.84
2016-02-18T11:20:32.230Z,1015.86
2016-02-18T11:21:36.795Z,1015.85
2016-02-18T11:22:59.374Z,1015.85
2016-02-18T11:23:46.657Z,1015.79
2016-02-18T11:25:05.861Z,1015.81
2016-02-18T11:26:52.382Z,1015.8
2016-02-18T11:27:52.383Z,1015.79
2016-02-18T11:29:05.136Z,1015.8
2016-02-18T11:30:05.153Z,1015.77
2016-02-18T11:31:18.111Z,1015.81
2016-02-18T11:32:14.721Z,1015.81
2016-02-18T11:33:24.257Z,1015.81
2016-02-18T11:35:39.481Z,1015.81
2016-02-18T11:36:39.483Z,1015.86
2016-02-18T11:38:54.661Z,1015.87
2016-02-18T11:39:54.679Z,1015.84
2016-02-18T11:42:22.625Z,1015.83
2016-02-18T11:43:09.906Z,1015.82
2016-02-18T11:44:38.724Z,1015.81
2016-02-18T11:45:13.052Z,1015.79
2016-02-18T11:46:47.463Z,1015.85
2016-02-18T11:47:47.483Z,1015.84
2016-02-18T11:48:47.485Z,1015.84
2016-02-18T11:49:57.065Z,1015.85
2016-02-18T11:50:57.084Z,1015.86
2016-02-18T11:52:12.305Z,1015.84
2016-02-18T11:53:12.308Z,1015.85
2016-02-18T11:54:25.063Z,1015.85
2016-02-18T11:55:25.082Z,1015.85
2016-02-18T11:56:25.099Z,1015.82
2016-02-18T11:57:31.587Z,1015.85
2016-02-18T11:58:12.399Z,1015.82
2016-02-18T11:59:38.077Z,1015.84
2016-02-18T12:01:25.191Z,1015.85
2016-02-18T12:02:25.193Z,1015.82
2016-02-18T12:03:31.478Z,1015.84
2016-02-18T12:04:38.012Z,1015.78
2016-02-18T12:05:25.248Z,1015.82
2016-02-18T12:07:06.768Z,1015.79
2016-02-18T12:07:47.567Z,1015.77
2016-02-18T12:08:47.585Z,1015.75
2016-02-18T12:09:47.603Z,1015.76
2016-02-18T12:10:48.215Z,1015.73
2016-02-18T12:11:47.640Z,1015.72
2016-02-18T12:13:13.315Z,1015.69
2016-02-18T12:14:01.645Z,1015.71
2016-02-18T12:15:00.242Z,1015.67
2016-02-18T12:16:12.994Z,1015.63
2016-02-18T12:17:06.528Z,1015.66
2016-02-18T12:18:25.987Z,1015.66
2016-02-18T12:19:00.316Z,1015.64
2016-02-18T12:21:32.183Z,1015.64
2016-02-18T12:22:32.201Z,1015.61
2016-02-18T12:23:38.469Z,1015.59
2016-02-18T12:24:44.956Z,1015.59
2016-02-18T12:25:32.241Z,1015.62
2016-02-18T12:26:51.477Z,1015.58
2016-02-18T12:27:32.277Z,1015.61
2016-02-18T12:30:00.204Z,1015.56
2016-02-18T12:31:00.207Z,1015.54
2016-02-18T12:32:00.240Z,1015.5
2016-02-18T12:33:00.243Z,1015.52
2016-02-18T12:34:12.996Z,1015.51
2016-02-18T12:35:13.030Z,1015.51
2016-02-18T12:36:25.973Z,1015.47
2016-02-18T12:37:13.051Z,1015.5
2016-02-18T12:38:00.335Z,1015.49
2016-02-18T12:39:21.903Z,1015.46
2016-02-18T12:40:41.375Z,1015.5
2016-02-18T12:41:26.690Z,1015.51
2016-02-18T12:42:26.708Z,1015.47
2016-02-18T12:44:41.932Z,1015.46
2016-02-18T12:45:41.935Z,1015.51
2016-02-18T12:46:41.953Z,1015.5
2016-02-18T12:47:41.972Z,1015.48
2016-02-18T12:50:22.682Z,1015.53
2016-02-18T12:52:19.544Z,1015.56
2016-02-18T12:53:19.564Z,1015.57
2016-02-18T12:54:19.581Z,1015.58
2016-02-18T12:55:19.600Z,1015.62
2016-02-18T12:56:19.618Z,1015.61
2016-02-18T12:57:28.982Z,1015.63
2016-02-18T12:58:26.423Z,1015.63
2016-02-18T12:59:26.440Z,1015.64
2016-02-18T13:00:41.647Z,1015.67
2016-02-18T13:01:41.650Z,1015.67
2016-02-18T13:03:23.155Z,1015.69
2016-02-18T13:04:23.174Z,1015.7
2016-02-18T13:06:38.382Z,1015.71
2016-02-18T13:07:38.384Z,1015.69
2016-02-18T13:08:44.668Z,1015.67
2016-02-18T13:09:51.156Z,1015.7
2016-02-18T13:10:38.439Z,1015.69
2016-02-18T13:11:41.521Z,1015.73
2016-02-18T13:12:41.539Z,1015.65
2016-02-18T13:13:42.151Z,1015.7
2016-02-18T13:15:58.265Z,1015.71
2016-02-18T13:16:58.267Z,1015.68
2016-02-18T13:17:58.302Z,1015.72
2016-02-18T13:18:58.305Z,1015.68
2016-02-18T13:19:58.339Z,1015.69
2016-02-18T13:20:58.342Z,1015.7
2016-02-18T13:21:58.360Z,1015.7
2016-02-18T13:22:59.800Z,1015.67
2016-02-18T13:24:17.599Z,1015.67
2016-02-18T13:25:01.462Z,1015.67
2016-02-18T13:26:27.169Z,1015.66
2016-02-18T13:27:17.341Z,1015.63
2016-02-18T13:28:30.097Z,1015.62